sensor_id;sensor_type;location;lat;lon;timestamp;pressure;altitude;pressure_sealevel;temperature;humidity
48404;BME280;34202;52.536;6.042;2022-10-18T00:04:34;102632.67;;;14.42;100.00
48404;BME280;34202;52.536;6.042;2022-10-18T00:09:34;102636.56;;;14.44;100.00
48404;BME280;34202;52.536;6.042;2022-10-18T00:14:35;102634.67;;;14.46;100.00
48404;BME280;34202;52.536;6.042;2022-10-18T00:19:35;102631.21;;;14.48;100.00
48404;BME280;34202;52.536;6.042;2022-10-18T00:24:35;102622.30;;;14.49;100.00
48404;BME280;34202;52.536;6.042;2022-10-18T00:29:35;102624.60;;;14.51;100.00
48404;BME280;34202;52.536;6.042;2022-10-18T00:34:36;102628.13;;;14.52;100.00
48404;BME280;34202;52.536;6.042;2022-10-18T00:39:36;102626.91;;;14.53;100.00
48404;BME280;34202;52.536;6.042;2022-10-18T00:54:38;102632.20;;;14.55;100.00
48404;BME280;34202;52.536;6.042;2022-10-18T00:59:40;102634.49;;;14.55;100.00
48404;BME280;34202;52.536;6.042;2022-10-18T01:04:40;102632.91;;;14.55;100.00
48404;BME280;34202;52.536;6.042;2022-10-18T01:20:13;102637.63;;;14.54;100.00
48404;BME280;34202;52.536;6.042;2022-10-18T01:30:57;102632.48;;;14.51;100.00
48404;BME280;34202;52.536;6.042;2022-10-18T01:41:18;102637.98;;;14.45;100.00
48404;BME280;34202;52.536;6.042;2022-10-18T01:46:20;102638.27;;;14.42;100.00
48404;BME280;34202;52.536;6.042;2022-10-18T01:51:26;102645.58;;;14.39;100.00
48404;BME280;34202;52.536;6.042;2022-10-18T01:56:30;102651.81;;;14.36;100.00
48404;BME280;34202;52.536;6.042;2022-10-18T02:06:52;102655.04;;;14.31;100.00
48404;BME280;34202;52.536;6.042;2022-10-18T02:11:56;102658.69;;;14.29;100.00
48404;BME280;34202;52.536;6.042;2022-10-18T02:16:57;102653.59;;;14.28;100.00
48404;BME280;34202;52.536;6.042;2022-10-18T02:21:59;102646.72;;;14.26;100.00
48404;BME280;34202;52.536;6.042;2022-10-18T02:26:59;102646.69;;;14.25;100.00
48404;BME280;34202;52.536;6.042;2022-10-18T02:32:05;102650.66;;;14.23;100.00
48404;BME280;34202;52.536;6.042;2022-10-18T02:37:08;102649.73;;;14.20;100.00
48404;BME280;34202;52.536;6.042;2022-10-18T02:42:09;102647.92;;;14.17;100.00
48404;BME280;34202;52.536;6.042;2022-10-18T02:47:11;102655.77;;;14.15;100.00
48404;BME280;34202;52.536;6.042;2022-10-18T02:52:11;102649.91;;;14.11;100.00
48404;BME280;34202;52.536;6.042;2022-10-18T02:57:11;102647.21;;;14.08;100.00
48404;BME280;34202;52.536;6.042;2022-10-18T03:02:11;102648.03;;;14.05;100.00
48404;BME280;34202;52.536;6.042;2022-10-18T03:07:11;102647.63;;;14.03;100.00
48404;BME280;34202;52.536;6.042;2022-10-18T03:12:12;102651.12;;;14.02;100.00
48404;BME280;34202;52.536;6.042;2022-10-18T03:17:12;102649.16;;;14.00;100.00
48404;BME280;34202;52.536;6.042;2022-10-18T03:22:12;102655.94;;;13.99;100.00
48404;BME280;34202;52.536;6.042;2022-10-18T03:27:12;102655.38;;;13.97;100.00
48404;BME280;34202;52.536;6.042;2022-10-18T03:32:12;102657.60;;;13.94;100.00
48404;BME280;34202;52.536;6.042;2022-10-18T03:37:13;102654.02;;;13.90;100.00
48404;BME280;34202;52.536;6.042;2022-10-18T03:42:13;102657.45;;;13.88;100.00
48404;BME280;34202;52.536;6.042;2022-10-18T03:47:13;102659.15;;;13.85;100.00
48404;BME280;34202;52.536;6.042;2022-10-18T03:52:13;102652.60;;;13.82;100.00
48404;BME280;34202;52.536;6.042;2022-10-18T03:57:13;102652.02;;;13.79;100.00
48404;BME280;34202;52.536;6.042;2022-10-18T04:02:14;102653.02;;;13.77;100.00
48404;BME280;34202;52.536;6.042;2022-10-18T04:07:14;102649.27;;;13.73;100.00
48404;BME280;34202;52.536;6.042;2022-10-18T04:12:14;102651.45;;;13.69;100.00
48404;BME280;34202;52.536;6.042;2022-10-18T04:17:14;102654.68;;;13.65;100.00
48404;BME280;34202;52.536;6.042;2022-10-18T04:22:15;102652.14;;;13.61;100.00
48404;BME280;34202;52.536;6.042;2022-10-18T04:27:15;102653.77;;;13.56;100.00
48404;BME280;34202;52.536;6.042;2022-10-18T04:32:15;102657.18;;;13.52;100.00
48404;BME280;34202;52.536;6.042;2022-10-18T04:37:15;102653.25;;;13.49;100.00
48404;BME280;34202;52.536;6.042;2022-10-18T04:42:16;102652.98;;;13.45;100.00
48404;BME280;34202;52.536;6.042;2022-10-18T04:47:16;102663.36;;;13.40;100.00
48404;BME280;34202;52.536;6.042;2022-10-18T04:52:16;102660.52;;;13.38;100.00
48404;BME280;34202;52.536;6.042;2022-10-18T04:57:16;102663.79;;;13.36;100.00
48404;BME280;34202;52.536;6.042;2022-10-18T05:02:17;102665.52;;;13.34;100.00
48404;BME280;34202;52.536;6.042;2022-10-18T05:07:17;102663.52;;;13.32;100.00
48404;BME280;34202;52.536;6.042;2022-10-18T05:12:17;102669.09;;;13.31;100.00
48404;BME280;34202;52.536;6.042;2022-10-18T05:17:18;102664.46;;;13.28;100.00
48404;BME280;34202;52.536;6.042;2022-10-18T05:22:18;102671.73;;;13.26;100.00
48404;BME280;34202;52.536;6.042;2022-10-18T05:27:18;102677.63;;;13.24;100.00
48404;BME280;34202;52.536;6.042;2022-10-18T05:32:18;102682.33;;;13.23;100.00
48404;BME280;34202;52.536;6.042;2022-10-18T05:37:19;102677.38;;;13.21;100.00
48404;BME280;34202;52.536;6.042;2022-10-18T05:42:20;102680.63;;;13.19;100.00
48404;BME280;34202;52.536;6.042;2022-10-18T05:47:20;102693.84;;;13.15;100.00
48404;BME280;34202;52.536;6.042;2022-10-18T05:52:20;102705.63;;;13.11;100.00
48404;BME280;34202;52.536;6.042;2022-10-18T05:57:21;102711.30;;;13.08;100.00
48404;BME280;34202;52.536;6.042;2022-10-18T06:02:21;102715.58;;;13.04;100.00
48404;BME280;34202;52.536;6.042;2022-10-18T06:07:21;102712.66;;;13.00;100.00
48404;BME280;34202;52.536;6.042;2022-10-18T06:12:21;102723.09;;;12.97;100.00
48404;BME280;34202;52.536;6.042;2022-10-18T06:17:21;102726.98;;;12.92;100.00
48404;BME280;34202;52.536;6.042;2022-10-18T06:22:22;102747.84;;;12.88;100.00
48404;BME280;34202;52.536;6.042;2022-10-18T06:27:22;102745.84;;;12.85;100.00
48404;BME280;34202;52.536;6.042;2022-10-18T06:32:22;102751.00;;;12.82;100.00
48404;BME280;34202;52.536;6.042;2022-10-18T06:37:22;102757.57;;;12.80;100.00
48404;BME280;34202;52.536;6.042;2022-10-18T06:42:22;102755.23;;;12.79;100.00
48404;BME280;34202;52.536;6.042;2022-10-18T06:47:23;102753.64;;;12.77;100.00
48404;BME280;34202;52.536;6.042;2022-10-18T06:52:23;102762.65;;;12.74;100.00
48404;BME280;34202;52.536;6.042;2022-10-18T06:57:24;102770.09;;;12.72;100.00
48404;BME280;34202;52.536;6.042;2022-10-18T07:02:24;102770.71;;;12.69;100.00
48404;BME280;34202;52.536;6.042;2022-10-18T07:07:24;102779.94;;;12.68;100.00
48404;BME280;34202;52.536;6.042;2022-10-18T07:12:25;102782.74;;;12.68;100.00
48404;BME280;34202;52.536;6.042;2022-10-18T07:17:25;102789.14;;;12.66;100.00
48404;BME280;34202;52.536;6.042;2022-10-18T07:22:25;102803.24;;;12.65;100.00
48404;BME280;34202;52.536;6.042;2022-10-18T07:27:26;102811.02;;;12.62;100.00
48404;BME280;34202;52.536;6.042;2022-10-18T07:32:26;102802.95;;;12.61;100.00
48404;BME280;34202;52.536;6.042;2022-10-18T07:37:26;102814.45;;;12.60;100.00
48404;BME280;34202;52.536;6.042;2022-10-18T07:42:26;102814.61;;;12.59;100.00
48404;BME280;34202;52.536;6.042;2022-10-18T07:47:26;102820.13;;;12.57;100.00
48404;BME280;34202;52.536;6.042;2022-10-18T07:52:26;102823.98;;;12.57;100.00
48404;BME280;34202;52.536;6.042;2022-10-18T07:57:27;102822.23;;;12.57;100.00
48404;BME280;34202;52.536;6.042;2022-10-18T08:02:27;102829.42;;;12.58;100.00
48404;BME280;34202;52.536;6.042;2022-10-18T08:07:27;102832.08;;;12.59;100.00
48404;BME280;34202;52.536;6.042;2022-10-18T08:12:27;102845.05;;;12.61;100.00
48404;BME280;34202;52.536;6.042;2022-10-18T08:17:27;102830.85;;;12.65;100.00
48404;BME280;34202;52.536;6.042;2022-10-18T08:22:28;102831.43;;;12.67;100.00
48404;BME280;34202;52.536;6.042;2022-10-18T08:27:28;102845.39;;;12.72;100.00
48404;BME280;34202;52.536;6.042;2022-10-18T08:32:28;102840.32;;;12.77;100.00
48404;BME280;34202;52.536;6.042;2022-10-18T08:37:28;102852.39;;;12.84;100.00
48404;BME280;34202;52.536;6.042;2022-10-18T08:47:47;102858.89;;;12.97;100.00
48404;BME280;34202;52.536;6.042;2022-10-18T08:52:52;102857.31;;;13.04;100.00
48404;BME280;34202;52.536;6.042;2022-10-18T08:57:56;102851.81;;;13.12;100.00
48404;BME280;34202;52.536;6.042;2022-10-18T09:08:11;102858.77;;;13.29;100.00
48404;BME280;34202;52.536;6.042;2022-10-18T09:18:30;102874.86;;;13.55;100.00
48404;BME280;34202;52.536;6.042;2022-10-18T09:29:00;102870.31;;;13.82;100.00
48404;BME280;34202;52.536;6.042;2022-10-18T09:34:25;102879.79;;;13.97;100.00
48404;BME280;34202;52.536;6.042;2022-10-18T09:39:29;102869.84;;;14.12;100.00
48404;BME280;34202;52.536;6.042;2022-10-18T09:44:43;102878.59;;;14.26;100.00
48404;BME280;34202;52.536;6.042;2022-10-18T09:49:46;102887.17;;;14.41;100.00
48404;BME280;34202;52.536;6.042;2022-10-18T09:54:48;102887.71;;;14.57;100.00
48404;BME280;34202;52.536;6.042;2022-10-18T09:59:50;102885.64;;;14.72;100.00
48404;BME280;34202;52.536;6.042;2022-10-18T10:04:51;102892.13;;;14.89;100.00
48404;BME280;34202;52.536;6.042;2022-10-18T10:10:06;102898.08;;;15.05;100.00
48404;BME280;34202;52.536;6.042;2022-10-18T10:15:08;102893.88;;;15.22;100.00
48404;BME280;34202;52.536;6.042;2022-10-18T10:20:19;102896.28;;;15.38;100.00
48404;BME280;34202;52.536;6.042;2022-10-18T10:25:33;102900.96;;;15.53;100.00
48404;BME280;34202;52.536;6.042;2022-10-18T10:30:35;102898.98;;;15.69;100.00
48404;BME280;34202;52.536;6.042;2022-10-18T10:35:40;102898.60;;;15.85;100.00
48404;BME280;34202;52.536;6.042;2022-10-18T10:40:48;102910.09;;;15.99;100.00
48404;BME280;34202;52.536;6.042;2022-10-18T10:51:10;102921.50;;;16.31;100.00
48404;BME280;34202;52.536;6.042;2022-10-18T10:56:12;102933.64;;;16.43;100.00
48404;BME280;34202;52.536;6.042;2022-10-18T11:06:24;102934.08;;;16.72;100.00
48404;BME280;34202;52.536;6.042;2022-10-18T11:11:30;102932.12;;;16.82;100.00
48404;BME280;34202;52.536;6.042;2022-10-18T11:16:34;102948.59;;;16.89;99.64
48404;BME280;34202;52.536;6.042;2022-10-18T11:21:35;102938.11;;;16.95;97.97
48404;BME280;34202;52.536;6.042;2022-10-18T11:26:41;102942.42;;;17.01;97.17
48404;BME280;34202;52.536;6.042;2022-10-18T11:37:06;102941.88;;;17.13;95.77
48404;BME280;34202;52.536;6.042;2022-10-18T11:57:39;102955.42;;;17.13;90.99
48404;BME280;34202;52.536;6.042;2022-10-18T12:02:47;102951.48;;;17.08;89.94
48404;BME280;34202;52.536;6.042;2022-10-18T12:08:01;102942.73;;;16.98;89.70
48404;BME280;34202;52.536;6.042;2022-10-18T12:13:04;102939.19;;;16.95;90.44
48404;BME280;34202;52.536;6.042;2022-10-18T12:18:11;102931.98;;;16.96;91.05
48404;BME280;34202;52.536;6.042;2022-10-18T12:23:19;102934.11;;;16.97;91.00
48404;BME280;34202;52.536;6.042;2022-10-18T12:33:24;102930.99;;;16.89;90.74
48404;BME280;34202;52.536;6.042;2022-10-18T12:38:34;102935.01;;;16.86;90.72
48404;BME280;34202;52.536;6.042;2022-10-18T12:43:35;102942.76;;;16.77;89.53
48404;BME280;34202;52.536;6.042;2022-10-18T12:48:40;102938.92;;;16.67;89.04
48404;BME280;34202;52.536;6.042;2022-10-18T12:53:42;102935.13;;;16.59;88.61
48404;BME280;34202;52.536;6.042;2022-10-18T12:58:44;102930.10;;;16.53;88.54
48404;BME280;34202;52.536;6.042;2022-10-18T13:03:54;102930.24;;;16.50;88.87
48404;BME280;34202;52.536;6.042;2022-10-18T13:09:15;102929.70;;;16.50;89.23
48404;BME280;34202;52.536;6.042;2022-10-18T13:46:09;102938.84;;;16.17;89.44
48404;BME280;34202;52.536;6.042;2022-10-18T14:08:06;102947.44;;;15.97;88.49
48404;BME280;34202;52.536;6.042;2022-10-18T14:13:19;102948.83;;;15.96;88.89
48404;BME280;34202;52.536;6.042;2022-10-18T14:18:28;102950.90;;;15.94;88.56
48404;BME280;34202;52.536;6.042;2022-10-18T14:23:34;102947.54;;;15.92;88.57
48404;BME280;34202;52.536;6.042;2022-10-18T14:28:35;102951.94;;;15.92;88.39
48404;BME280;34202;52.536;6.042;2022-10-18T14:33:38;102956.52;;;15.94;88.21
48404;BME280;34202;52.536;6.042;2022-10-18T14:38:58;102957.79;;;15.96;88.00
48404;BME280;34202;52.536;6.042;2022-10-18T14:49:15;102958.11;;;15.94;87.97
48404;BME280;34202;52.536;6.042;2022-10-18T14:54:22;102950.36;;;15.93;87.75
48404;BME280;34202;52.536;6.042;2022-10-18T14:59:26;102947.86;;;15.90;87.68
48404;BME280;34202;52.536;6.042;2022-10-18T15:04:28;102946.77;;;15.89;87.79
48404;BME280;34202;52.536;6.042;2022-10-18T15:09:32;102951.28;;;15.86;87.49
48404;BME280;34202;52.536;6.042;2022-10-18T15:14:34;102951.33;;;15.78;87.16
48404;BME280;34202;52.536;6.042;2022-10-18T15:19:36;102952.73;;;15.71;87.15
48404;BME280;34202;52.536;6.042;2022-10-18T15:24:39;102949.99;;;15.65;87.19
48404;BME280;34202;52.536;6.042;2022-10-18T15:29:40;102952.20;;;15.61;87.15
48404;BME280;34202;52.536;6.042;2022-10-18T15:34:42;102952.44;;;15.55;86.98
48404;BME280;34202;52.536;6.042;2022-10-18T15:39:43;102955.29;;;15.49;86.93
48404;BME280;34202;52.536;6.042;2022-10-18T15:44:48;102954.63;;;15.42;87.05
48404;BME280;34202;52.536;6.042;2022-10-18T15:49:53;102958.52;;;15.35;87.24
48404;BME280;34202;52.536;6.042;2022-10-18T15:54:55;102955.40;;;15.29;87.43
48404;BME280;34202;52.536;6.042;2022-10-18T16:00:03;102950.52;;;15.21;87.61
48404;BME280;34202;52.536;6.042;2022-10-18T16:05:04;102947.36;;;15.13;87.67
48404;BME280;34202;52.536;6.042;2022-10-18T16:10:12;102946.34;;;15.06;87.81
48404;BME280;34202;52.536;6.042;2022-10-18T16:15:12;102957.89;;;14.97;87.91
48404;BME280;34202;52.536;6.042;2022-10-18T16:20:19;102969.97;;;14.89;87.86
48404;BME280;34202;52.536;6.042;2022-10-18T16:25:20;102970.48;;;14.80;88.00
48404;BME280;34202;52.536;6.042;2022-10-18T16:30:21;102964.67;;;14.72;88.23
48404;BME280;34202;52.536;6.042;2022-10-18T16:35:23;102972.92;;;14.65;88.24
48404;BME280;34202;52.536;6.042;2022-10-18T16:40:25;102972.92;;;14.58;88.41
48404;BME280;34202;52.536;6.042;2022-10-18T16:45:26;102974.63;;;14.51;88.39
48404;BME280;34202;52.536;6.042;2022-10-18T16:50:26;102971.41;;;14.40;88.50
48404;BME280;34202;52.536;6.042;2022-10-18T16:55:26;102975.73;;;14.31;88.51
48404;BME280;34202;52.536;6.042;2022-10-18T17:00:27;102977.45;;;14.23;88.55
48404;BME280;34202;52.536;6.042;2022-10-18T17:05:27;102994.34;;;14.12;88.51
48404;BME280;34202;52.536;6.042;2022-10-18T17:10:27;103000.68;;;14.00;88.48
48404;BME280;34202;52.536;6.042;2022-10-18T17:15:28;103009.52;;;13.90;88.56
48404;BME280;34202;52.536;6.042;2022-10-18T17:20:29;103016.59;;;13.80;88.78
48404;BME280;34202;52.536;6.042;2022-10-18T17:25:29;103029.55;;;13.68;88.82
48404;BME280;34202;52.536;6.042;2022-10-18T17:30:30;103028.52;;;13.57;88.94
48404;BME280;34202;52.536;6.042;2022-10-18T17:35:30;103031.23;;;13.48;89.11
48404;BME280;34202;52.536;6.042;2022-10-18T17:40:31;103032.36;;;13.39;89.37
48404;BME280;34202;52.536;6.042;2022-10-18T17:45:32;103038.55;;;13.30;89.34
48404;BME280;34202;52.536;6.042;2022-10-18T17:50:32;103039.00;;;13.22;89.49
48404;BME280;34202;52.536;6.042;2022-10-18T17:55:33;103045.89;;;13.13;89.45
48404;BME280;34202;52.536;6.042;2022-10-18T18:00:34;103048.89;;;13.03;89.45
48404;BME280;34202;52.536;6.042;2022-10-18T18:05:34;103051.18;;;12.93;89.56
48404;BME280;34202;52.536;6.042;2022-10-18T18:10:34;103048.47;;;12.85;89.70
48404;BME280;34202;52.536;6.042;2022-10-18T18:15:35;103054.42;;;12.74;89.87
48404;BME280;34202;52.536;6.042;2022-10-18T18:20:35;103058.65;;;12.65;90.09
48404;BME280;34202;52.536;6.042;2022-10-18T18:25:35;103057.65;;;12.56;90.22
48404;BME280;34202;52.536;6.042;2022-10-18T18:30:38;103056.66;;;12.47;90.34
48404;BME280;34202;52.536;6.042;2022-10-18T18:35:38;103057.92;;;12.38;90.50
48404;BME280;34202;52.536;6.042;2022-10-18T18:40:39;103055.96;;;12.32;90.69
48404;BME280;34202;52.536;6.042;2022-10-18T18:45:39;103052.53;;;12.24;90.75
48404;BME280;34202;52.536;6.042;2022-10-18T18:50:39;103050.00;;;12.16;90.84
48404;BME280;34202;52.536;6.042;2022-10-18T18:55:40;103050.58;;;12.08;90.86
48404;BME280;34202;52.536;6.042;2022-10-18T19:00:42;103048.08;;;12.01;91.01
48404;BME280;34202;52.536;6.042;2022-10-18T19:05:42;103051.29;;;11.94;90.96
48404;BME280;34202;52.536;6.042;2022-10-18T19:10:42;103047.05;;;11.84;91.05
48404;BME280;34202;52.536;6.042;2022-10-18T19:15:47;103053.05;;;11.76;91.12
48404;BME280;34202;52.536;6.042;2022-10-18T19:20:48;103060.79;;;11.68;91.24
48404;BME280;34202;52.536;6.042;2022-10-18T19:25:48;103065.01;;;11.60;91.41
48404;BME280;34202;52.536;6.042;2022-10-18T19:30:48;103067.38;;;11.53;91.65
48404;BME280;34202;52.536;6.042;2022-10-18T19:35:49;103068.50;;;11.47;91.72
48404;BME280;34202;52.536;6.042;2022-10-18T19:40:49;103065.77;;;11.39;91.80
48404;BME280;34202;52.536;6.042;2022-10-18T19:45:50;103059.23;;;11.32;91.84
48404;BME280;34202;52.536;6.042;2022-10-18T19:50:50;103060.41;;;11.26;92.01
48404;BME280;34202;52.536;6.042;2022-10-18T19:55:56;103073.23;;;11.20;92.05
48404;BME280;34202;52.536;6.042;2022-10-18T20:00:57;103078.69;;;11.13;91.97
48404;BME280;34202;52.536;6.042;2022-10-18T20:06:00;103080.13;;;11.05;92.04
48404;BME280;34202;52.536;6.042;2022-10-18T20:11:03;103077.92;;;10.98;92.14
48404;BME280;34202;52.536;6.042;2022-10-18T20:16:05;103078.89;;;10.92;92.27
48404;BME280;34202;52.536;6.042;2022-10-18T20:21:07;103073.73;;;10.86;92.39
48404;BME280;34202;52.536;6.042;2022-10-18T20:26:13;103076.05;;;10.78;92.47
48404;BME280;34202;52.536;6.042;2022-10-18T20:31:16;103076.65;;;10.71;92.48
48404;BME280;34202;52.536;6.042;2022-10-18T20:36:17;103082.63;;;10.64;92.59
48404;BME280;34202;52.536;6.042;2022-10-18T20:41:24;103089.83;;;10.58;92.49
48404;BME280;34202;52.536;6.042;2022-10-18T20:46:26;103101.00;;;10.50;92.50
48404;BME280;34202;52.536;6.042;2022-10-18T20:51:28;103099.62;;;10.42;92.53
48404;BME280;34202;52.536;6.042;2022-10-18T20:56:29;103097.23;;;10.35;92.68
48404;BME280;34202;52.536;6.042;2022-10-18T21:01:33;103098.33;;;10.29;92.80
48404;BME280;34202;52.536;6.042;2022-10-18T21:06:36;103098.41;;;10.23;93.04
48404;BME280;34202;52.536;6.042;2022-10-18T21:11:40;103094.36;;;10.18;93.23
48404;BME280;34202;52.536;6.042;2022-10-18T21:16:41;103087.00;;;10.13;93.37
48404;BME280;34202;52.536;6.042;2022-10-18T21:21:44;103086.24;;;10.08;93.53
48404;BME280;34202;52.536;6.042;2022-10-18T21:26:45;103087.97;;;10.04;93.86
48404;BME280;34202;52.536;6.042;2022-10-18T21:31:46;103084.69;;;10.00;94.08
48404;BME280;34202;52.536;6.042;2022-10-18T21:36:47;103080.93;;;9.98;94.27
48404;BME280;34202;52.536;6.042;2022-10-18T21:41:48;103084.15;;;9.96;94.44
48404;BME280;34202;52.536;6.042;2022-10-18T21:46:48;103094.99;;;9.94;94.54
48404;BME280;34202;52.536;6.042;2022-10-18T21:51:49;103094.92;;;9.92;94.70
48404;BME280;34202;52.536;6.042;2022-10-18T21:56:49;103091.70;;;9.90;94.96
48404;BME280;34202;52.536;6.042;2022-10-18T22:01:50;103087.98;;;9.88;95.21
48404;BME280;34202;52.536;6.042;2022-10-18T22:06:51;103074.70;;;9.87;95.35
48404;BME280;34202;52.536;6.042;2022-10-18T22:11:52;103069.08;;;9.86;95.49
48404;BME280;34202;52.536;6.042;2022-10-18T22:16:52;103058.96;;;9.85;95.67
48404;BME280;34202;52.536;6.042;2022-10-18T22:21:53;103055.98;;;9.84;95.76
48404;BME280;34202;52.536;6.042;2022-10-18T22:26:53;103053.10;;;9.83;95.68
48404;BME280;34202;52.536;6.042;2022-10-18T22:31:53;103058.41;;;9.81;95.56
48404;BME280;34202;52.536;6.042;2022-10-18T22:36:54;103062.11;;;9.78;95.48
48404;BME280;34202;52.536;6.042;2022-10-18T22:41:54;103049.08;;;9.74;95.37
48404;BME280;34202;52.536;6.042;2022-10-18T22:46:56;103041.30;;;9.72;95.37
48404;BME280;34202;52.536;6.042;2022-10-18T22:51:56;103040.40;;;9.67;95.38
48404;BME280;34202;52.536;6.042;2022-10-18T22:56:56;103032.60;;;9.60;95.34
48404;BME280;34202;52.536;6.042;2022-10-18T23:01:57;103031.33;;;9.55;95.36
48404;BME280;34202;52.536;6.042;2022-10-18T23:06:57;103038.58;;;9.50;95.38
48404;BME280;34202;52.536;6.042;2022-10-18T23:11:57;103040.91;;;9.44;95.27
48404;BME280;34202;52.536;6.042;2022-10-18T23:16:57;103046.55;;;9.38;95.26
48404;BME280;34202;52.536;6.042;2022-10-18T23:21:58;103044.52;;;9.32;95.41
48404;BME280;34202;52.536;6.042;2022-10-18T23:26:58;103050.61;;;9.29;95.72
48404;BME280;34202;52.536;6.042;2022-10-18T23:31:58;103059.08;;;9.27;96.12
48404;BME280;34202;52.536;6.042;2022-10-18T23:36:59;103057.42;;;9.26;96.36
48404;BME280;34202;52.536;6.042;2022-10-18T23:41:59;103054.27;;;9.24;96.36
48404;BME280;34202;52.536;6.042;2022-10-18T23:46:59;103052.36;;;9.25;96.52
48404;BME280;34202;52.536;6.042;2022-10-18T23:51:59;103049.93;;;9.25;96.82
48404;BME280;34202;52.536;6.042;2022-10-18T23:57:00;103054.20;;;9.27;97.23
